Stratford, New Jersey
Current Conditions -  °F | °C
As of 11:54 AM on Thursday 25 Dec 2014 (Local Time) from KVAY Reporting Station
NA  
Wind Chill: 51°   Ceiling: NA
Heat Index: 51°   Visibility: 10mi
Dew Point: 31°   Wind: 13mph
Humidity: 46%   Direction: 290°WNW
Pressure: 29.85"   Gusts: 20mph
Location:  39.83°N, 75.01°W
Report Text: KVAY 251654Z AUTO 29011G17KT 10SM 11/M01 A2985 RMK AO2 SLP106 T01061006 $
Loading
Personal Weather Stations






























Interactive Weather Map New forecast layout! Learn more

10-Day Weather Forecast

Advertisements
Track Severe Weather on mobile